createdAt,value
2023-01-17T00:00:25.438Z,96692.16
2023-01-17T00:02:52.835Z,96578.31
2023-01-17T00:05:37.827Z,96691.31
2023-01-17T00:08:24.145Z,96689.84
2023-01-17T00:10:51.517Z,96702.72
2023-01-17T00:13:18.928Z,96699.22
2023-01-17T00:15:46.316Z,96696.59
2023-01-17T00:18:13.731Z,96699.66
2023-01-17T00:20:58.637Z,96703.66
2023-01-17T00:23:56.600Z,96693.19
2023-01-17T00:26:24.089Z,96709.09
2023-01-17T00:28:50.489Z,96700.38
2023-01-17T00:31:17.035Z,96710.91
2023-01-17T00:33:43.513Z,96724.22
2023-01-17T00:36:10.172Z,96672.63
2023-01-17T00:38:38.619Z,96731.16
2023-01-17T00:41:05.992Z,96739.91
2023-01-17T00:43:51.070Z,96745.19
2023-01-17T00:46:36.385Z,96752.38
2023-01-17T00:49:21.924Z,96757.63
2023-01-17T00:52:06.705Z,96759.44
2023-01-17T00:54:53.300Z,96758.47
2023-01-17T00:57:38.228Z,96756.00
2023-01-17T01:00:24.377Z,96769.16
2023-01-17T01:03:09.235Z,96762.38
2023-01-17T01:05:55.394Z,96686.44
2023-01-17T01:08:41.198Z,96774.75
2023-01-17T01:11:28.400Z,96785.28
2023-01-17T01:14:13.545Z,96774.75
2023-01-17T01:16:58.859Z,96665.00
2023-01-17T01:19:44.171Z,96783.91
2023-01-17T01:22:28.895Z,96800.25
2023-01-17T01:25:13.695Z,96797.63
2023-01-17T01:28:00.191Z,96803.03
2023-01-17T01:30:45.518Z,96732.72
2023-01-17T01:33:19.101Z,96813.59
2023-01-17T01:35:47.353Z,96816.22
2023-01-17T01:38:14.733Z,96819.16
2023-01-17T01:40:45.985Z,96824.97
2023-01-17T01:43:15.727Z,96729.91
2023-01-17T01:45:45.982Z,96782.72
2023-01-17T01:48:21.868Z,96833.84
2023-01-17T01:50:49.298Z,96778.72
2023-01-17T01:53:16.676Z,96839.09
2023-01-17T01:55:45.345Z,96836.63
2023-01-17T01:58:15.976Z,96761.75
2023-01-17T02:00:43.427Z,96762.25
2023-01-17T02:03:11.502Z,96842.72
2023-01-17T02:05:39.616Z,96845.50
2023-01-17T02:08:08.545Z,96845.50
2023-01-17T02:10:36.304Z,96849.13
2023-01-17T02:13:03.768Z,96850.78
2023-01-17T02:15:33.820Z,96849.78
2023-01-17T02:18:06.175Z,96858.00
2023-01-17T02:20:49.191Z,96790.38
2023-01-17T02:23:51.736Z,96846.25
2023-01-17T02:26:34.375Z,96810.72
2023-01-17T02:29:14.031Z,96769.72
2023-01-17T02:31:44.490Z,96767.31
2023-01-17T02:34:15.145Z,96843.31
2023-01-17T02:36:44.246Z,96838.88
2023-01-17T02:39:14.605Z,96850.22
2023-01-17T02:41:43.193Z,96847.59
2023-01-17T02:44:10.636Z,96860.78
2023-01-17T02:46:46.381Z,96856.34
2023-01-17T02:49:13.832Z,96854.69
2023-01-17T02:51:48.161Z,96854.69
2023-01-17T02:54:30.187Z,96859.13
2023-01-17T02:57:02.266Z,96852.34
2023-01-17T02:59:35.393Z,96866.03
2023-01-17T03:02:10.546Z,96875.78
2023-01-17T03:04:39.878Z,96872.44
2023-01-17T03:07:10.129Z,96866.00
2023-01-17T03:09:37.362Z,96886.59
2023-01-17T03:12:05.235Z,96891.88
2023-01-17T03:14:32.614Z,96895.19
2023-01-17T03:17:00.017Z,96897.81
2023-01-17T03:19:28.764Z,96907.41
2023-01-17T03:21:56.182Z,96921.38
2023-01-17T03:24:23.551Z,96920.56
2023-01-17T03:26:50.925Z,96928.47
2023-01-17T03:29:18.312Z,96937.06
2023-01-17T03:31:46.479Z,96942.31
2023-01-17T03:34:13.842Z,96950.22
2023-01-17T03:36:42.637Z,96952.88
2023-01-17T03:39:10.181Z,96942.75
2023-01-17T03:41:37.569Z,96941.81
2023-01-17T03:44:05.624Z,96956.50
2023-01-17T03:46:33.064Z,96952.88
2023-01-17T03:49:00.422Z,96966.03
2023-01-17T03:51:27.931Z,96967.72
2023-01-17T03:53:56.624Z,96972.31
2023-01-17T03:56:24.036Z,96904.03
2023-01-17T03:58:51.557Z,96978.28
2023-01-17T04:01:19.007Z,96979.91
2023-01-17T04:03:46.455Z,96986.97
2023-01-17T04:06:13.832Z,96982.56
2023-01-17T04:08:41.512Z,96982.00
2023-01-17T04:11:10.210Z,97004.47
2023-01-17T04:13:37.630Z,96996.72
2023-01-17T04:16:05.633Z,97004.63
2023-01-17T04:18:33.035Z,97002.00
2023-01-17T04:21:00.433Z,97013.34
2023-01-17T04:23:27.863Z,97012.53
2023-01-17T04:25:55.236Z,97020.44
2023-01-17T04:28:23.929Z,97013.34
2023-01-17T04:30:51.427Z,97013.34
2023-01-17T04:33:18.838Z,96954.94
2023-01-17T04:35:46.331Z,97033.63
2023-01-17T04:38:13.707Z,97031.94
2023-01-17T04:40:41.109Z,97049.72
2023-01-17T04:43:08.513Z,97048.88
2023-01-17T04:45:38.661Z,97060.25
2023-01-17T04:48:06.011Z,97068.31
2023-01-17T04:50:33.412Z,97072.59
2023-01-17T04:53:00.867Z,96998.19
2023-01-17T04:55:28.271Z,97088.25
2023-01-17T04:57:55.658Z,97103.22
2023-01-17T05:00:24.242Z,97105.88
2023-01-17T05:02:53.144Z,97111.13
2023-01-17T05:05:20.602Z,97111.28
2023-01-17T05:07:54.245Z,97032.97
2023-01-17T05:10:21.649Z,97128.78
2023-01-17T05:12:54.784Z,97140.97
2023-01-17T05:15:22.183Z,97144.88
2023-01-17T05:17:49.574Z,97155.94
2023-01-17T05:20:18.559Z,97155.41
2023-01-17T05:22:47.230Z,97165.53
2023-01-17T05:25:15.104Z,97151.09
2023-01-17T05:27:42.503Z,97168.72
2023-01-17T05:30:11.374Z,97155.28
2023-01-17T05:32:38.786Z,97165.25
2023-01-17T05:35:07.210Z,97176.19
2023-01-17T05:37:35.966Z,97184.94
2023-01-17T05:40:03.574Z,97191.88
2023-01-17T05:42:30.960Z,97193.56
2023-01-17T05:44:58.336Z,97198.84
2023-01-17T05:47:25.708Z,97134.72
2023-01-17T05:49:53.069Z,97206.50
2023-01-17T05:52:20.503Z,97216.06
2023-01-17T05:54:50.517Z,97216.75
2023-01-17T05:57:18.024Z,97221.06
2023-01-17T05:59:45.378Z,97229.66
2023-01-17T06:02:12.786Z,97239.09
2023-01-17T06:04:40.167Z,97241.72
2023-01-17T06:07:07.580Z,97252.13
2023-01-17T06:09:34.971Z,97252.84
2023-01-17T06:12:03.791Z,97265.88
2023-01-17T06:14:31.226Z,97263.94
2023-01-17T06:16:58.614Z,97237.28
2023-01-17T06:19:25.983Z,97273.66
2023-01-17T06:21:53.370Z,97275.03
2023-01-17T06:24:20.803Z,97280.31
2023-01-17T06:26:48.191Z,97290.88
2023-01-17T06:29:16.876Z,97291.56
2023-01-17T06:31:44.251Z,97299.34
2023-01-17T06:34:11.634Z,97296.72
2023-01-17T06:36:39.086Z,97303.50
2023-01-17T06:39:06.469Z,97300.16
2023-01-17T06:41:33.845Z,97303.22
2023-01-17T06:44:01.215Z,97304.75
2023-01-17T06:46:30.021Z,97295.44
2023-01-17T06:48:57.438Z,97311.56
2023-01-17T06:51:24.900Z,97315.16
2023-01-17T06:53:52.277Z,97319.06
2023-01-17T06:56:19.686Z,97302.50
2023-01-17T06:58:49.682Z,97330.16
2023-01-17T07:01:17.251Z,97341.53
2023-01-17T07:03:46.167Z,97343.78
2023-01-17T07:06:13.595Z,97347.25
2023-01-17T07:08:41.006Z,97352.25
2023-01-17T07:11:08.741Z,97353.06
2023-01-17T07:13:36.568Z,97366.97
2023-01-17T07:16:04.184Z,97353.78
2023-01-17T07:18:31.729Z,97355.69
2023-01-17T07:21:00.522Z,97359.75
2023-01-17T07:23:27.920Z,97287.09
2023-01-17T07:28:16.042Z,97380.59
2023-01-17T07:30:43.423Z,97383.09
2023-01-17T07:33:10.793Z,97350.56
2023-01-17T07:35:38.210Z,97383.22
2023-01-17T07:38:11.228Z,97393.63
2023-01-17T07:40:42.228Z,97327.50
2023-01-17T07:43:13.931Z,97375.44
2023-01-17T07:45:42.955Z,97312.66
2023-01-17T07:48:10.394Z,97402.25
2023-01-17T07:50:37.751Z,97406.13
2023-01-17T07:53:06.651Z,97408.22
2023-01-17T07:55:34.111Z,97410.56
2023-01-17T07:58:03.051Z,97414.75
2023-01-17T08:00:30.687Z,97417.94
2023-01-17T08:02:58.164Z,97421.28
2023-01-17T08:05:25.696Z,97374.75
2023-01-17T08:07:53.114Z,97427.53
2023-01-17T08:10:22.484Z,97430.31
2023-01-17T08:12:50.511Z,97425.84
2023-01-17T08:15:18.191Z,97433.63
2023-01-17T08:17:48.701Z,97432.81
2023-01-17T08:20:16.395Z,97426.72
2023-01-17T08:22:43.790Z,97441.00
2023-01-17T08:25:11.278Z,97395.44
2023-01-17T08:27:40.006Z,97447.81
2023-01-17T08:30:08.496Z,97457.00
2023-01-17T08:32:35.911Z,97468.13
2023-01-17T08:35:03.318Z,97459.34
2023-01-17T08:37:30.718Z,97457.28
2023-01-17T08:39:58.079Z,97473.13
2023-01-17T08:42:25.472Z,97480.78
2023-01-17T08:44:54.288Z,97471.72
2023-01-17T08:47:21.687Z,97477.13
2023-01-17T08:49:49.042Z,97476.59
2023-01-17T08:52:16.420Z,97477.25
2023-01-17T08:54:43.798Z,97437.63
2023-01-17T08:57:11.198Z,97475.31
2023-01-17T08:59:38.575Z,97465.75
2023-01-17T09:02:14.750Z,97463.38
2023-01-17T09:04:44.656Z,97462.53
2023-01-17T09:07:12.043Z,97468.81
2023-01-17T09:09:39.482Z,97479.25
2023-01-17T09:12:07.485Z,97471.69
2023-01-17T09:14:34.879Z,97388.06
2023-01-17T09:17:02.442Z,97476.28
2023-01-17T09:19:31.179Z,97472.72
2023-01-17T09:21:58.569Z,97477.44
2023-01-17T09:24:25.948Z,97482.84
2023-01-17T09:26:53.359Z,97489.25
2023-01-17T09:29:21.007Z,97488.38
2023-01-17T09:31:48.665Z,97493.91
2023-01-17T09:34:16.066Z,97497.69
2023-01-17T09:36:44.896Z,97497.91
2023-01-17T09:39:14.819Z,97502.78
2023-01-17T09:41:46.862Z,97501.53
2023-01-17T09:44:22.381Z,97501.38
2023-01-17T09:46:50.020Z,97491.09
2023-01-17T09:49:23.050Z,97433.31
2023-01-17T09:51:51.752Z,97500.13
2023-01-17T09:54:21.543Z,97495.81
2023-01-17T09:56:51.731Z,97510.00
2023-01-17T09:59:32.289Z,97501.38
2023-01-17T10:02:05.438Z,97492.34
2023-01-17T10:04:41.695Z,97453.75
2023-01-17T10:07:16.023Z,97505.41
2023-01-17T10:09:50.295Z,97497.63
2023-01-17T10:12:23.079Z,97502.34
2023-01-17T10:14:57.421Z,97505.56
2023-01-17T10:17:30.698Z,97506.56
2023-01-17T10:20:04.817Z,97507.53
2023-01-17T10:22:46.355Z,97460.16
2023-01-17T10:25:23.996Z,97482.41
2023-01-17T10:27:56.476Z,97525.34
2023-01-17T10:30:24.443Z,97521.72
2023-01-17T10:32:51.834Z,97520.91
2023-01-17T10:35:22.074Z,97425.56
2023-01-17T10:37:51.122Z,97495.91
2023-01-17T10:40:20.653Z,97465.75
2023-01-17T10:42:50.936Z,97519.06
2023-01-17T10:45:20.861Z,97479.47
2023-01-17T10:47:49.765Z,97512.28
2023-01-17T10:50:18.103Z,97484.75
2023-01-17T10:52:48.028Z,97528.41
2023-01-17T10:55:25.229Z,97531.22
2023-01-17T10:57:52.622Z,97534.00
2023-01-17T11:00:29.779Z,97542.06
2023-01-17T11:02:57.379Z,97543.19
2023-01-17T11:05:26.506Z,97529.00
2023-01-17T11:08:00.997Z,97548.75
2023-01-17T11:10:39.778Z,97543.63
2023-01-17T11:13:07.781Z,97552.50
2023-01-17T11:15:36.023Z,97545.41
2023-01-17T11:18:04.301Z,97485.47
2023-01-17T11:20:34.195Z,97533.47
2023-01-17T11:23:04.051Z,97552.78
2023-01-17T11:25:33.817Z,97430.72
2023-01-17T11:28:04.667Z,97551.00
2023-01-17T11:30:32.047Z,97557.25
2023-01-17T11:32:59.856Z,97511.78
2023-01-17T11:35:28.890Z,97492.69
2023-01-17T11:38:04.500Z,97550.44
2023-01-17T11:40:32.753Z,97468.00
2023-01-17T11:43:03.232Z,97553.78
2023-01-17T11:45:31.080Z,97559.06
2023-01-17T11:48:16.039Z,97556.41
2023-01-17T11:50:45.488Z,97555.44
2023-01-17T11:53:24.347Z,97467.84
2023-01-17T11:56:00.147Z,97515.66
2023-01-17T11:58:28.944Z,97562.41
2023-01-17T12:01:01.870Z,97480.75
2023-01-17T12:03:37.567Z,97551.56
2023-01-17T12:06:08.258Z,97549.72
2023-01-17T12:08:48.053Z,97548.91
2023-01-17T12:11:19.604Z,97447.13
2023-01-17T12:14:00.959Z,97546.56
2023-01-17T12:16:38.119Z,97545.69
2023-01-17T12:19:21.580Z,97544.84
2023-01-17T12:21:53.079Z,97547.63
2023-01-17T12:24:30.058Z,97548.75
2023-01-17T12:27:00.376Z,97553.78
2023-01-17T12:29:48.545Z,97549.63
2023-01-17T12:32:30.632Z,97550.16
2023-01-17T12:35:00.574Z,97545.84
2023-01-17T12:37:32.655Z,97546.69
2023-01-17T12:40:06.857Z,97460.34
2023-01-17T12:42:36.161Z,97546.81
2023-01-17T12:45:06.615Z,97428.50
2023-01-17T12:47:34.426Z,97555.44
2023-01-17T12:50:05.379Z,97550.84
2023-01-17T12:52:46.682Z,97551.00
2023-01-17T12:55:17.732Z,97560.16
2023-01-17T12:57:46.157Z,97486.31
2023-01-17T13:00:19.548Z,97564.34
2023-01-17T13:02:50.440Z,97564.34
2023-01-17T13:05:23.538Z,97561.69
2023-01-17T13:07:54.779Z,97552.66
2023-01-17T13:10:25.996Z,97473.38
2023-01-17T13:12:53.534Z,97495.81
2023-01-17T13:15:23.794Z,97555.00
2023-01-17T13:17:52.004Z,97518.47
2023-01-17T13:20:22.532Z,97563.78
2023-01-17T13:22:50.102Z,97563.94
2023-01-17T13:25:29.657Z,97573.50
2023-01-17T13:28:15.048Z,97567.53
2023-01-17T13:30:58.687Z,97568.22
2023-01-17T13:33:38.016Z,97561.13
2023-01-17T13:36:25.323Z,97564.31
2023-01-17T13:39:01.863Z,97574.09
2023-01-17T13:41:37.974Z,97571.28
2023-01-17T13:44:24.306Z,97570.31
2023-01-17T13:47:24.390Z,97573.78
2023-01-17T13:49:56.242Z,97577.53
2023-01-17T13:52:33.391Z,97572.09
2023-01-17T13:55:01.820Z,97575.31
2023-01-17T13:57:41.817Z,97534.69
2023-01-17T14:00:52.238Z,97577.09
2023-01-17T14:03:55.458Z,97582.41
2023-01-17T14:06:34.506Z,97521.34
2023-01-17T14:09:03.074Z,97583.91
2023-01-17T14:11:33.561Z,97586.28
2023-01-17T14:14:34.228Z,97578.19
2023-01-17T14:17:46.631Z,97582.38
2023-01-17T14:20:36.052Z,97578.75
2023-01-17T14:23:14.942Z,97586.97
2023-01-17T14:25:42.462Z,97579.59
2023-01-17T14:28:22.056Z,97579.59
2023-01-17T14:30:54.090Z,97565.16
2023-01-17T14:33:26.073Z,97518.41
2023-01-17T14:35:55.537Z,97569.47
2023-01-17T14:38:25.172Z,97572.09
2023-01-17T14:40:53.546Z,97572.53
2023-01-17T14:43:21.497Z,97572.38
2023-01-17T14:45:48.984Z,97560.28
2023-01-17T14:48:16.925Z,97578.66
2023-01-17T14:50:45.018Z,97568.22
2023-01-17T14:53:20.353Z,97574.31
2023-01-17T14:55:53.287Z,97555.72
2023-01-17T14:58:21.416Z,97569.19
2023-01-17T15:00:49.971Z,97577.13
2023-01-17T15:03:17.696Z,97566.16
2023-01-17T15:05:46.573Z,97570.03
2023-01-17T15:08:14.554Z,97571.00
2023-01-17T15:10:47.691Z,97569.59
2023-01-17T15:13:19.432Z,97573.78
2023-01-17T15:15:48.692Z,97571.28
2023-01-17T15:18:25.727Z,97572.09
2023-01-17T15:20:56.254Z,97578.25
2023-01-17T15:23:24.180Z,97585.19
2023-01-17T15:25:52.277Z,97581.16
2023-01-17T15:28:21.327Z,97590.75
2023-01-17T15:31:16.201Z,97586.16
2023-01-17T15:33:44.699Z,97524.59
2023-01-17T15:36:23.296Z,97600.53
2023-01-17T15:38:55.162Z,97603.44
2023-01-17T15:41:23.719Z,97603.44
2023-01-17T15:43:57.351Z,97613.19
2023-01-17T15:46:28.270Z,97612.47
2023-01-17T15:49:08.698Z,97622.25
2023-01-17T15:51:38.118Z,97624.16
2023-01-17T15:54:34.449Z,97625.69
2023-01-17T15:57:06.548Z,97635.72
2023-01-17T15:59:42.817Z,97625.97
2023-01-17T16:02:33.649Z,97624.31
2023-01-17T16:05:01.387Z,97546.78
2023-01-17T16:07:31.683Z,97611.38
2023-01-17T16:10:03.053Z,97614.00
2023-01-17T16:12:30.418Z,97627.50
2023-01-17T16:15:11.731Z,97625.00
2023-01-17T16:17:40.287Z,97626.94
2023-01-17T16:20:15.870Z,97567.22
2023-01-17T16:22:43.872Z,97631.69
2023-01-17T16:25:14.705Z,97543.16
2023-01-17T16:27:43.094Z,97625.00
2023-01-17T16:30:15.160Z,97636.69
2023-01-17T16:32:42.685Z,97566.53
2023-01-17T16:35:14.288Z,97631.25
2023-01-17T16:37:41.727Z,97648.78
2023-01-17T16:40:10.439Z,97648.09
2023-01-17T16:42:37.820Z,97648.38
2023-01-17T16:45:05.895Z,97654.63
2023-01-17T16:47:34.585Z,97660.06
2023-01-17T16:50:02.140Z,97657.69
2023-01-17T16:52:29.523Z,97651.66
2023-01-17T16:54:56.899Z,97652.78
2023-01-17T16:57:24.265Z,97651.50
2023-01-17T16:59:52.243Z,97663.63
2023-01-17T17:02:19.693Z,97658.03
2023-01-17T17:04:48.430Z,97667.47
2023-01-17T17:07:15.907Z,97665.94
2023-01-17T17:09:43.310Z,97665.28
2023-01-17T17:12:10.678Z,97668.19
2023-01-17T17:14:38.162Z,97667.47
2023-01-17T17:17:06.513Z,97671.91
2023-01-17T17:19:34.390Z,97571.53
2023-01-17T17:22:03.092Z,97666.91
2023-01-17T17:24:30.482Z,97669.66
2023-01-17T17:26:57.845Z,97657.59
2023-01-17T17:29:25.312Z,97666.47
2023-01-17T17:31:53.578Z,97661.34
2023-01-17T17:34:22.291Z,97660.63
2023-01-17T17:36:49.671Z,97652.00
2023-01-17T17:39:18.364Z,97653.81
2023-01-17T17:41:45.955Z,97653.25
2023-01-17T17:44:13.529Z,97650.88
2023-01-17T17:46:42.805Z,97652.66
2023-01-17T17:49:10.243Z,97655.69
2023-01-17T17:51:38.302Z,97665.19
2023-01-17T17:54:06.618Z,97645.13
2023-01-17T17:56:35.373Z,97667.94
2023-01-17T17:59:03.244Z,97667.09
2023-01-17T18:01:30.843Z,97664.59
2023-01-17T18:04:03.006Z,97672.66
2023-01-17T18:06:30.510Z,97684.34
2023-01-17T18:08:57.883Z,97687.91
2023-01-17T18:11:26.581Z,97692.38
2023-01-17T18:13:55.912Z,97681.31
2023-01-17T18:16:24.211Z,97702.34
2023-01-17T18:18:52.657Z,97705.97
2023-01-17T18:21:23.429Z,97706.91
2023-01-17T18:23:51.697Z,97651.31
2023-01-17T18:26:19.931Z,97722.91
2023-01-17T18:28:47.357Z,97721.22
2023-01-17T18:31:16.273Z,97726.63
2023-01-17T18:33:43.646Z,97722.34
2023-01-17T18:36:11.929Z,97720.66
2023-01-17T18:38:39.537Z,97714.69
2023-01-17T18:41:07.324Z,97704.91
2023-01-17T18:43:35.091Z,97652.03
2023-01-17T18:46:02.474Z,97727.44
2023-01-17T18:48:31.142Z,97723.13
2023-01-17T18:50:58.595Z,97721.44
2023-01-17T18:53:25.987Z,97712.50
2023-01-17T18:55:56.986Z,97723.38
2023-01-17T18:58:24.557Z,97691.03
2023-01-17T19:00:52.509Z,97710.00
2023-01-17T19:03:20.319Z,97732.38
2023-01-17T19:05:49.010Z,97734.19
2023-01-17T19:08:16.587Z,97735.28
2023-01-17T19:10:44.290Z,97733.63
2023-01-17T19:13:11.757Z,97568.41
2023-01-17T19:15:39.132Z,97740.13
2023-01-17T19:18:06.588Z,97665.47
2023-01-17T19:20:35.033Z,97750.81
2023-01-17T19:23:03.757Z,97761.50
2023-01-17T19:25:31.134Z,97764.94
2023-01-17T19:27:58.761Z,97767.72
2023-01-17T19:30:26.206Z,97775.75
2023-01-17T19:32:53.580Z,97712.31
2023-01-17T19:35:22.668Z,97772.44
2023-01-17T19:37:51.635Z,97778.66
2023-01-17T19:40:20.574Z,97716.03
2023-01-17T19:42:48.027Z,97758.38
2023-01-17T19:45:15.522Z,97793.91
2023-01-17T19:47:42.881Z,97786.00
2023-01-17T19:50:12.392Z,97788.78
2023-01-17T19:52:39.922Z,97734.47
2023-01-17T19:55:09.675Z,97795.13
2023-01-17T19:57:40.448Z,97793.31
2023-01-17T20:00:09.358Z,97717.13
2023-01-17T20:02:38.073Z,97789.41
2023-01-17T20:05:06.016Z,97790.94
2023-01-17T20:07:33.626Z,97794.56
2023-01-17T20:10:01.000Z,97793.84
2023-01-17T20:12:28.379Z,97790.34
2023-01-17T20:14:57.050Z,97788.22
2023-01-17T20:17:24.416Z,97796.72
2023-01-17T20:19:51.826Z,97791.56
2023-01-17T20:22:19.209Z,97797.81
2023-01-17T20:24:46.583Z,97804.75
2023-01-17T20:27:13.966Z,97799.88
2023-01-17T20:29:41.460Z,97814.47
2023-01-17T20:32:10.154Z,97805.88
2023-01-17T20:34:37.530Z,97807.78
2023-01-17T20:37:04.903Z,97815.69
2023-01-17T20:39:32.649Z,97804.28
2023-01-17T20:42:00.052Z,97814.03
2023-01-17T20:44:27.477Z,97807.19
2023-01-17T20:46:54.861Z,97808.53
2023-01-17T20:49:23.831Z,97823.13
2023-01-17T20:51:51.243Z,97833.69
2023-01-17T20:54:19.262Z,97794.91
2023-01-17T20:56:47.266Z,97823.25
2023-01-17T20:59:15.624Z,97823.25
2023-01-17T21:01:44.270Z,97778.84
2023-01-17T21:04:11.788Z,97822.44
2023-01-17T21:06:41.216Z,97832.13
2023-01-17T21:09:09.423Z,97822.69
2023-01-17T21:11:37.452Z,97819.31
2023-01-17T21:14:05.561Z,97824.59
2023-01-17T21:16:34.099Z,97744.91
2023-01-17T21:19:01.651Z,97807.22
2023-01-17T21:21:29.747Z,97822.22
2023-01-17T21:23:59.081Z,97825.56
2023-01-17T21:26:27.149Z,97814.31
2023-01-17T21:28:54.678Z,97819.56
2023-01-17T21:31:23.789Z,97785.47
2023-01-17T21:33:52.362Z,97810.09
2023-01-17T21:36:19.886Z,97823.44
2023-01-17T21:38:49.563Z,97823.44
2023-01-17T21:41:18.780Z,97833.22
2023-01-17T21:43:46.325Z,97831.56
2023-01-17T21:46:13.851Z,97833.34
2023-01-17T21:48:41.251Z,97847.38
2023-01-17T21:51:09.017Z,97850.81
2023-01-17T21:53:36.485Z,97843.88
2023-01-17T21:56:21.735Z,97851.81
2023-01-17T21:58:53.754Z,97852.78
2023-01-17T22:01:22.502Z,97857.19
2023-01-17T22:03:50.964Z,97858.97
2023-01-17T22:06:18.428Z,97873.00
2023-01-17T22:08:45.824Z,97868.72
2023-01-17T22:11:14.230Z,97880.19
2023-01-17T22:13:42.630Z,97874.13
2023-01-17T22:16:12.700Z,97882.13
2023-01-17T22:18:40.494Z,97880.44
2023-01-17T22:21:08.756Z,97883.19
2023-01-17T22:23:36.333Z,97801.34
2023-01-17T22:26:04.564Z,97889.31
2023-01-17T22:28:32.733Z,97862.75
2023-01-17T22:31:00.450Z,97889.31
2023-01-17T22:33:29.178Z,97893.75
2023-01-17T22:35:59.454Z,97891.22
2023-01-17T22:38:26.843Z,97895.69
2023-01-17T22:40:55.136Z,97903.72
2023-01-17T22:43:22.553Z,97619.34
2023-01-17T22:45:49.944Z,97897.72
2023-01-17T22:48:17.306Z,97896.88
2023-01-17T22:50:46.235Z,97899.63
2023-01-17T22:53:13.737Z,97899.75
2023-01-17T22:55:41.128Z,97901.44
2023-01-17T22:58:08.545Z,97894.47
2023-01-17T23:00:35.999Z,97895.31
2023-01-17T23:03:03.523Z,97903.34
2023-01-17T23:05:31.011Z,97905.13
2023-01-17T23:08:02.090Z,97908.97
2023-01-17T23:10:47.534Z,97910.66
2023-01-17T23:13:15.232Z,97909.84
2023-01-17T23:16:00.057Z,97913.28
2023-01-17T23:18:45.486Z,97920.50
2023-01-17T23:21:12.857Z,97916.16
2023-01-17T23:23:41.560Z,97907.91
2023-01-17T23:26:08.950Z,97916.16
2023-01-17T23:28:35.391Z,97913.53
2023-01-17T23:31:04.776Z,97904.78
2023-01-17T23:33:32.231Z,97923.25
2023-01-17T23:35:59.637Z,97912.84
2023-01-17T23:38:26.165Z,97920.13
2023-01-17T23:41:12.765Z,97919.03
2023-01-17T23:43:40.121Z,97910.44
2023-01-17T23:46:10.998Z,97906.09
2023-01-17T23:48:38.426Z,97894.38
2023-01-17T23:51:07.797Z,97909.59
2023-01-17T23:53:35.486Z,97904.31
2023-01-17T23:56:07.055Z,97896.41
2023-01-17T23:58:35.026Z,97887.06
